createdAt,value
2019-04-18T00:00:38.207Z,11.60
2019-04-18T00:03:15.362Z,11.50
2019-04-18T00:05:45.013Z,11.70
2019-04-18T00:08:14.844Z,11.50
2019-04-18T00:10:44.298Z,11.30
2019-04-18T00:13:13.764Z,10.90
2019-04-18T00:15:43.207Z,10.30
2019-04-18T00:18:12.833Z,10.20
2019-04-18T00:20:44.937Z,10.50
2019-04-18T00:23:13.472Z,10.60
2019-04-18T00:25:43.016Z,10.60
2019-04-18T00:28:13.016Z,10.60
2019-04-18T00:30:42.705Z,10.70
2019-04-18T00:33:14.875Z,10.50
2019-04-18T00:35:43.433Z,10.50
2019-04-18T00:38:12.884Z,10.30
2019-04-18T00:40:43.740Z,10.30
2019-04-18T00:43:13.528Z,10.30
2019-04-18T00:45:44.401Z,10.30
2019-04-18T00:48:13.982Z,10.00
2019-04-18T00:50:44.116Z,10.00
2019-04-18T00:53:13.636Z,10.00
2019-04-18T00:55:43.079Z,10.00
2019-04-18T00:58:15.571Z,10.10
2019-04-18T01:00:43.780Z,9.80
2019-04-18T01:03:13.304Z,9.60
2019-04-18T01:05:43.323Z,9.90
2019-04-18T01:08:12.997Z,10.00
2019-04-18T01:10:43.405Z,9.70
2019-04-18T01:13:12.961Z,9.40
2019-04-18T01:15:42.552Z,9.30
2019-04-18T01:18:15.173Z,9.20
2019-04-18T01:20:43.311Z,8.90
2019-04-18T01:23:13.003Z,8.90
2019-04-18T01:25:42.443Z,9.10
2019-04-18T01:28:11.929Z,8.90
2019-04-18T01:30:41.337Z,9.00
2019-04-18T01:33:11.667Z,8.80
2019-04-18T01:35:41.295Z,8.80
2019-04-18T01:38:11.978Z,8.90
2019-04-18T01:40:41.406Z,9.10
2019-04-18T01:43:18.343Z,9.10
2019-04-18T01:46:05.617Z,8.80
2019-04-18T01:48:35.905Z,9.00
2019-04-18T01:51:06.099Z,9.20
2019-04-18T01:53:35.563Z,9.00
2019-04-18T01:56:05.598Z,8.60
2019-04-18T01:58:35.029Z,8.50
2019-04-18T02:01:04.969Z,8.50
2019-04-18T02:03:34.935Z,8.40
2019-04-18T02:06:07.239Z,8.40
2019-04-18T02:08:36.768Z,8.50
2019-04-18T02:11:07.589Z,8.80
2019-04-18T02:13:37.670Z,8.60
2019-04-18T02:16:09.991Z,9.30
2019-04-18T02:18:38.385Z,9.90
2019-04-18T02:21:10.230Z,9.30
2019-04-18T02:23:39.015Z,8.80
2019-04-18T02:26:08.667Z,8.40
2019-04-18T02:28:39.724Z,8.00
2019-04-18T02:31:09.173Z,7.70
2019-04-18T02:33:41.866Z,7.50
2019-04-18T02:36:09.882Z,7.50
2019-04-18T02:38:39.316Z,7.80
2019-04-18T02:41:11.705Z,7.50
2019-04-18T02:43:40.384Z,7.60
2019-04-18T02:46:12.769Z,7.60
2019-04-18T02:48:41.094Z,7.50
2019-04-18T02:51:12.807Z,7.60
2019-04-18T02:53:41.718Z,7.80
2019-04-18T02:56:12.879Z,7.70
2019-04-18T02:58:44.097Z,8.10
2019-04-18T03:01:31.390Z,8.50
2019-04-18T03:04:18.795Z,7.50
2019-04-18T03:06:47.799Z,7.70
2019-04-18T03:09:16.728Z,7.50
2019-04-18T03:11:48.004Z,7.30
2019-04-18T03:14:17.361Z,7.10
2019-04-18T03:16:49.530Z,7.60
2019-04-18T03:19:22.449Z,7.50
2019-04-18T03:21:52.101Z,7.50
2019-04-18T03:24:21.722Z,8.20
2019-04-18T03:26:51.277Z,7.70
2019-04-18T03:29:20.963Z,7.50
2019-04-18T03:31:57.874Z,7.90
2019-04-18T03:34:21.749Z,7.80
2019-04-18T03:37:06.205Z,7.80
2019-04-18T03:39:36.399Z,7.70
2019-04-18T03:42:06.987Z,7.30
2019-04-18T03:44:40.892Z,7.60
2019-04-18T03:47:11.998Z,7.50
2019-04-18T03:49:43.742Z,6.80
2019-04-18T03:52:13.006Z,6.80
2019-04-18T03:54:46.453Z,7.30
2019-04-18T03:57:13.753Z,7.50
2019-04-18T03:59:43.273Z,7.20
2019-04-18T04:02:13.296Z,8.30
2019-04-18T04:04:42.815Z,7.40
2019-04-18T04:07:12.339Z,7.20
2019-04-18T04:09:41.806Z,7.50
2019-04-18T04:12:12.838Z,7.40
2019-04-18T04:14:42.348Z,7.50
2019-04-18T04:17:11.818Z,7.40
2019-04-18T04:19:41.268Z,7.20
2019-04-18T04:22:12.846Z,7.00
2019-04-18T04:24:41.872Z,7.00
2019-04-18T04:27:11.885Z,6.90
2019-04-18T04:29:41.323Z,6.90
2019-04-18T04:32:11.055Z,7.00
2019-04-18T04:34:43.469Z,7.10
2019-04-18T04:37:11.721Z,7.80
2019-04-18T04:39:41.264Z,7.80
2019-04-18T04:42:14.146Z,7.30
2019-04-18T04:44:41.946Z,7.20
2019-04-18T04:47:39.024Z,7.20
2019-04-18T04:50:25.379Z,7.20
2019-04-18T04:52:59.374Z,7.90
2019-04-18T04:55:31.515Z,8.00
2019-04-18T04:58:08.605Z,7.90
2019-04-18T05:00:45.746Z,8.00
2019-04-18T05:03:18.107Z,8.00
2019-04-18T05:05:46.442Z,8.30
2019-04-18T05:08:15.962Z,8.60
2019-04-18T05:10:47.952Z,8.70
2019-04-18T05:13:16.717Z,8.60
2019-04-18T05:15:46.173Z,8.50
2019-04-18T05:18:15.658Z,8.30
2019-04-18T05:20:45.113Z,8.40
2019-04-18T05:23:14.562Z,8.50
2019-04-18T05:25:44.014Z,8.10
2019-04-18T05:28:13.525Z,7.70
2019-04-18T05:30:42.975Z,8.00
2019-04-18T05:33:12.460Z,8.50
2019-04-18T05:35:41.894Z,8.60
2019-04-18T05:38:11.336Z,8.90
2019-04-18T05:40:40.830Z,9.10
2019-04-18T05:43:10.296Z,9.30
2019-04-18T05:45:42.771Z,9.50
2019-04-18T05:48:30.587Z,9.60
2019-04-18T05:51:19.619Z,9.50
2019-04-18T05:53:55.672Z,9.60
2019-04-18T05:56:28.028Z,9.70
2019-04-18T05:59:04.679Z,9.60
2019-04-18T06:01:42.440Z,9.60
2019-04-18T06:04:13.638Z,9.70
2019-04-18T06:07:12.408Z,9.80
2019-04-18T06:09:37.451Z,9.80
2019-04-18T06:12:10.593Z,9.70
2019-04-18T06:14:56.871Z,9.90
2019-04-18T06:17:34.910Z,10.00
2019-04-18T06:20:02.375Z,10.10
2019-04-18T06:22:36.031Z,10.20
2019-04-18T06:25:20.519Z,10.30
2019-04-18T06:27:51.174Z,10.40
2019-04-18T06:30:25.541Z,10.40
2019-04-18T06:32:57.339Z,10.40
2019-04-18T06:35:26.789Z,10.50
2019-04-18T06:37:56.303Z,10.60
2019-04-18T06:40:29.613Z,10.80
2019-04-18T06:42:57.149Z,10.80
2019-04-18T06:45:26.635Z,10.90
2019-04-18T06:47:56.087Z,10.90
2019-04-18T06:50:26.582Z,11.00
2019-04-18T06:52:56.303Z,11.20
2019-04-18T06:55:25.824Z,11.30
2019-04-18T06:57:58.490Z,11.30
2019-04-18T07:00:29.056Z,11.40
2019-04-18T07:02:59.089Z,11.60
2019-04-18T07:05:28.583Z,11.60
2019-04-18T07:08:02.477Z,11.70
2019-04-18T07:10:55.509Z,12.00
2019-04-18T07:13:20.457Z,12.00
2019-04-18T07:15:46.735Z,12.10
2019-04-18T07:18:16.223Z,12.10
2019-04-18T07:20:53.055Z,12.40
2019-04-18T07:23:39.209Z,12.50
2019-04-18T07:26:09.647Z,12.70
2019-04-18T07:28:49.106Z,12.80
2019-04-18T07:31:11.533Z,12.90
2019-04-18T07:33:42.339Z,13.00
2019-04-18T07:36:11.815Z,13.30
2019-04-18T07:38:41.280Z,13.50
2019-04-18T07:41:16.929Z,13.60
2019-04-18T07:43:42.030Z,13.60
2019-04-18T07:46:13.217Z,13.60
2019-04-18T07:48:42.655Z,13.70
2019-04-18T07:51:12.533Z,14.10
2019-04-18T07:53:42.182Z,14.20
2019-04-18T07:56:11.972Z,14.40
2019-04-18T07:58:41.383Z,14.60
2019-04-18T08:01:11.836Z,14.60
2019-04-18T08:03:45.415Z,14.60
2019-04-18T08:06:18.669Z,15.00
2019-04-18T08:08:43.807Z,15.10
2019-04-18T08:11:13.637Z,15.20
2019-04-18T08:13:43.191Z,15.50
2019-04-18T08:16:12.641Z,15.60
2019-04-18T08:18:42.423Z,15.80
2019-04-18T08:21:12.362Z,16.00
2019-04-18T08:23:41.897Z,16.00
2019-04-18T08:26:11.432Z,16.10
2019-04-18T08:28:40.916Z,16.40
2019-04-18T08:31:10.775Z,16.40
2019-04-18T08:33:40.344Z,16.60
2019-04-18T08:36:11.838Z,16.90
2019-04-18T08:38:45.736Z,16.90
2019-04-18T08:41:22.321Z,17.00
2019-04-18T08:43:52.480Z,17.00
2019-04-18T08:46:23.589Z,17.10
2019-04-18T08:48:53.913Z,17.40
2019-04-18T08:51:40.954Z,17.50
2019-04-18T08:54:21.003Z,17.40
2019-04-18T08:56:52.092Z,17.90
2019-04-18T08:59:38.976Z,17.80
2019-04-18T09:02:06.521Z,18.00
2019-04-18T09:04:36.928Z,18.00
2019-04-18T09:07:07.305Z,18.20
2019-04-18T09:09:37.056Z,18.20
2019-04-18T09:12:07.204Z,18.20
2019-04-18T09:14:39.210Z,18.30
2019-04-18T09:17:10.330Z,18.60
2019-04-18T09:19:40.864Z,18.60
2019-04-18T09:22:11.672Z,18.70
2019-04-18T09:24:41.699Z,18.60
2019-04-18T09:27:18.307Z,18.60
2019-04-18T09:29:53.958Z,18.70
2019-04-18T09:32:14.225Z,18.70
2019-04-18T09:34:43.797Z,18.70
2019-04-18T09:37:13.308Z,18.90
2019-04-18T09:39:45.976Z,18.90
2019-04-18T09:42:14.077Z,19.00
2019-04-18T09:44:43.475Z,19.00
2019-04-18T09:47:18.494Z,19.10
2019-04-18T09:49:44.178Z,19.20
2019-04-18T09:52:13.674Z,19.30
2019-04-18T09:54:43.168Z,19.40
2019-04-18T09:57:12.624Z,19.30
2019-04-18T09:59:42.378Z,19.30
2019-04-18T10:02:12.505Z,19.50
2019-04-18T10:04:45.488Z,19.50
2019-04-18T10:07:13.247Z,19.50
2019-04-18T10:09:42.749Z,19.50
2019-04-18T10:12:12.199Z,19.60
2019-04-18T10:14:43.191Z,19.70
2019-04-18T10:17:15.042Z,19.90
2019-04-18T10:19:48.443Z,19.80
2019-04-18T10:22:19.577Z,20.00
2019-04-18T10:24:53.652Z,20.00
2019-04-18T10:27:30.703Z,19.90
2019-04-18T10:30:01.880Z,20.00
2019-04-18T10:32:31.333Z,20.20
2019-04-18T10:35:01.647Z,20.20
2019-04-18T10:37:31.235Z,20.10
2019-04-18T10:40:00.707Z,20.20
2019-04-18T10:42:30.242Z,20.30
2019-04-18T10:44:59.720Z,20.20
2019-04-18T10:47:30.801Z,20.20
2019-04-18T10:50:00.284Z,20.30
2019-04-18T10:52:29.738Z,20.30
2019-04-18T10:54:59.192Z,20.30
2019-04-18T10:57:28.749Z,20.40
2019-04-18T10:59:58.222Z,20.50
2019-04-18T11:02:27.680Z,20.70
2019-04-18T11:04:57.160Z,20.80
2019-04-18T11:07:26.597Z,20.80
2019-04-18T11:09:58.360Z,20.70
2019-04-18T11:12:27.399Z,20.70
2019-04-18T11:14:56.791Z,20.60
2019-04-18T11:17:26.285Z,20.70
2019-04-18T11:19:55.722Z,21.00
2019-04-18T11:22:25.166Z,20.90
2019-04-18T11:24:54.680Z,20.90
2019-04-18T11:27:24.128Z,20.90
2019-04-18T11:29:53.568Z,21.00
2019-04-18T11:32:23.157Z,21.00
2019-04-18T11:34:52.563Z,21.00
2019-04-18T11:37:22.050Z,20.90
2019-04-18T11:39:56.357Z,21.20
2019-04-18T11:42:23.001Z,21.40
2019-04-18T11:44:52.443Z,21.30
2019-04-18T11:47:21.942Z,21.30
2019-04-18T11:49:51.405Z,21.30
2019-04-18T11:52:20.867Z,21.20
2019-04-18T11:54:52.374Z,21.20
2019-04-18T11:57:21.813Z,21.40
2019-04-18T11:59:55.842Z,21.40
2019-04-18T12:02:33.262Z,21.80
2019-04-18T12:05:21.899Z,21.50
2019-04-18T12:07:52.397Z,21.70
2019-04-18T12:10:21.846Z,21.50
2019-04-18T12:12:52.348Z,21.70
2019-04-18T12:15:22.742Z,21.50
2019-04-18T12:17:52.184Z,21.40
2019-04-18T12:20:21.691Z,21.80
2019-04-18T12:22:51.159Z,21.70
2019-04-18T12:25:20.660Z,22.00
2019-04-18T12:27:50.094Z,21.60
2019-04-18T12:30:19.830Z,21.70
2019-04-18T12:32:49.342Z,21.80
2019-04-18T12:35:18.871Z,22.00
2019-04-18T12:37:48.421Z,22.10
2019-04-18T12:40:18.014Z,22.10
2019-04-18T12:42:47.469Z,22.00
2019-04-18T12:45:20.740Z,22.10
2019-04-18T12:47:48.250Z,22.20
2019-04-18T12:50:18.190Z,22.10
2019-04-18T12:52:47.829Z,22.30
2019-04-18T12:55:17.255Z,22.40
2019-04-18T12:57:46.720Z,22.40
2019-04-18T13:00:17.803Z,22.20
2019-04-18T13:02:47.206Z,22.20
2019-04-18T13:05:17.063Z,22.40
2019-04-18T13:07:50.855Z,22.10
2019-04-18T13:10:25.075Z,22.60
2019-04-18T13:12:56.198Z,22.60
2019-04-18T13:15:32.965Z,22.60
2019-04-18T13:18:04.075Z,22.50
2019-04-18T13:20:33.704Z,22.60
2019-04-18T13:23:03.840Z,22.50
2019-04-18T13:25:33.395Z,22.70
2019-04-18T13:28:03.016Z,22.90
2019-04-18T13:30:32.454Z,22.50
2019-04-18T13:33:01.931Z,22.80
2019-04-18T13:35:31.379Z,22.50
2019-04-18T13:38:00.907Z,22.90
2019-04-18T13:40:30.719Z,22.70
2019-04-18T13:43:00.235Z,23.00
2019-04-18T13:45:29.767Z,23.10
2019-04-18T13:47:59.291Z,22.80
2019-04-18T13:50:28.797Z,23.00
2019-04-18T13:52:58.613Z,23.40
2019-04-18T13:55:28.210Z,23.30
2019-04-18T13:57:58.175Z,23.40
2019-04-18T14:00:30.691Z,23.20
2019-04-18T14:03:00.150Z,23.10
2019-04-18T14:05:29.657Z,23.00
2019-04-18T14:07:59.173Z,23.20
2019-04-18T14:10:28.633Z,23.10
2019-04-18T14:12:58.097Z,23.10
2019-04-18T14:15:27.986Z,23.40
2019-04-18T14:17:57.800Z,23.60
2019-04-18T14:20:27.441Z,23.70
2019-04-18T14:22:56.965Z,23.90
2019-04-18T14:25:26.444Z,23.90
2019-04-18T14:27:55.965Z,23.90
2019-04-18T14:30:25.706Z,23.90
2019-04-18T14:32:55.175Z,24.40
2019-04-18T14:35:24.753Z,24.70
2019-04-18T14:37:54.583Z,24.10
2019-04-18T14:40:24.965Z,24.30
2019-04-18T14:42:56.199Z,24.00
2019-04-18T14:45:25.575Z,24.10
2019-04-18T14:48:03.758Z,24.40
2019-04-18T14:50:26.365Z,24.30
2019-04-18T14:52:55.803Z,24.10
2019-04-18T14:55:25.419Z,24.50
2019-04-18T14:57:56.663Z,24.60
2019-04-18T15:00:43.163Z,24.80
2019-04-18T15:03:02.715Z,25.10
2019-04-18T15:05:32.635Z,24.80
2019-04-18T15:08:02.652Z,24.70
2019-04-18T15:10:32.096Z,25.00
2019-04-18T15:13:01.596Z,24.90
2019-04-18T15:15:31.524Z,25.00
2019-04-18T15:18:00.953Z,24.90
2019-04-18T15:20:32.092Z,24.80
2019-04-18T15:23:02.016Z,24.90
2019-04-18T15:25:32.509Z,25.40
2019-04-18T15:28:01.937Z,25.20
2019-04-18T15:30:32.214Z,25.30
2019-04-18T15:33:09.898Z,25.40
2019-04-18T15:35:32.901Z,25.40
2019-04-18T15:38:02.386Z,24.90
2019-04-18T15:40:33.430Z,25.20
2019-04-18T15:43:03.328Z,25.00
2019-04-18T15:45:35.192Z,25.20
2019-04-18T15:48:06.162Z,25.30
2019-04-18T15:50:35.852Z,25.20
2019-04-18T15:53:05.375Z,25.30
2019-04-18T15:55:34.848Z,25.40
2019-04-18T15:58:04.920Z,25.10
2019-04-18T16:00:34.970Z,24.80
2019-04-18T16:03:19.335Z,25.00
2019-04-18T16:05:36.778Z,25.40
2019-04-18T16:08:07.715Z,25.10
2019-04-18T16:10:37.837Z,25.10
2019-04-18T16:13:07.366Z,25.30
2019-04-18T16:15:36.825Z,24.80
2019-04-18T16:18:06.352Z,24.90
2019-04-18T16:20:35.876Z,25.00
2019-04-18T16:23:05.461Z,25.30
2019-04-18T16:25:35.121Z,25.60
2019-04-18T16:28:05.053Z,25.30
2019-04-18T16:30:54.211Z,25.30
2019-04-18T16:33:36.634Z,25.20
2019-04-18T16:35:54.979Z,25.70
2019-04-18T16:38:25.091Z,26.10
2019-04-18T16:40:54.586Z,25.70
2019-04-18T16:43:24.293Z,25.80
2019-04-18T16:45:53.758Z,25.40
2019-04-18T16:48:23.557Z,25.60
2019-04-18T16:50:53.357Z,25.50
2019-04-18T16:53:27.433Z,25.60
2019-04-18T16:55:56.887Z,25.70
2019-04-18T16:58:26.413Z,25.50
2019-04-18T17:00:55.869Z,25.60
2019-04-18T17:03:25.319Z,25.30
2019-04-18T17:05:54.752Z,25.60
2019-04-18T17:08:24.235Z,25.70
2019-04-18T17:10:53.673Z,25.40
2019-04-18T17:13:23.193Z,25.70
2019-04-18T17:15:52.731Z,26.10
2019-04-18T17:18:22.182Z,25.70
2019-04-18T17:20:51.689Z,25.70
2019-04-18T17:23:26.682Z,25.90
2019-04-18T17:25:57.228Z,25.80
2019-04-18T17:28:27.937Z,25.60
2019-04-18T17:31:01.116Z,25.60
2019-04-18T17:33:30.786Z,25.30
2019-04-18T17:36:13.246Z,25.30
2019-04-18T17:38:52.491Z,25.40
2019-04-18T17:41:10.114Z,25.30
2019-04-18T17:43:39.895Z,24.80
2019-04-18T17:46:11.885Z,24.70
2019-04-18T17:48:42.222Z,24.60
2019-04-18T17:51:23.151Z,24.80
2019-04-18T17:53:54.984Z,24.60
2019-04-18T17:56:22.724Z,24.40
2019-04-18T17:58:46.735Z,24.50
2019-04-18T18:01:16.958Z,24.40
2019-04-18T18:03:50.937Z,24.40
2019-04-18T18:06:23.233Z,24.30
2019-04-18T18:08:56.472Z,24.20
2019-04-18T18:11:48.229Z,24.30
2019-04-18T18:14:14.281Z,24.70
2019-04-18T18:16:42.463Z,24.40
2019-04-18T18:19:16.636Z,24.40
2019-04-18T18:21:49.523Z,24.40
2019-04-18T18:24:15.805Z,24.30
2019-04-18T18:26:58.287Z,24.20
2019-04-18T18:29:27.645Z,24.10
2019-04-18T18:32:01.856Z,24.10
2019-04-18T18:34:43.100Z,24.00
2019-04-18T18:37:07.130Z,24.00
2019-04-18T18:39:41.255Z,23.90
2019-04-18T18:42:09.575Z,23.80
2019-04-18T18:44:43.079Z,23.70
2019-04-18T18:47:11.753Z,23.60
2019-04-18T18:49:42.174Z,23.50
2019-04-18T18:52:12.752Z,23.40
2019-04-18T18:54:45.721Z,23.20
2019-04-18T18:57:16.729Z,23.00
2019-04-18T18:59:52.137Z,22.80
2019-04-18T19:02:19.566Z,21.80
2019-04-18T19:05:09.714Z,22.10
2019-04-18T19:07:27.681Z,22.30
2019-04-18T19:10:05.672Z,22.40
2019-04-18T19:12:26.868Z,22.40
2019-04-18T19:14:59.334Z,22.20
2019-04-18T19:17:29.173Z,21.60
2019-04-18T19:19:56.344Z,22.00
2019-04-18T19:22:25.802Z,21.90
2019-04-18T19:24:59.943Z,21.90
2019-04-18T19:27:35.956Z,21.70
2019-04-18T19:30:06.159Z,21.50
2019-04-18T19:32:28.948Z,21.40
2019-04-18T19:35:13.438Z,21.30
2019-04-18T19:37:51.043Z,21.30
2019-04-18T19:40:37.543Z,21.20
2019-04-18T19:42:34.672Z,21.00
2019-04-18T19:45:09.477Z,20.90
2019-04-18T19:47:37.439Z,20.70
2019-04-18T19:50:09.341Z,20.50
2019-04-18T19:52:41.196Z,20.40
2019-04-18T19:55:15.214Z,20.10
2019-04-18T19:57:41.486Z,20.20
2019-04-18T20:00:13.532Z,20.00
2019-04-18T20:02:43.678Z,20.00
2019-04-18T20:05:22.232Z,20.00
2019-04-18T20:07:53.324Z,19.90
2019-04-18T20:10:32.797Z,19.90
2019-04-18T20:12:54.823Z,19.80
2019-04-18T20:15:20.685Z,19.70
2019-04-18T20:17:51.404Z,19.70
2019-04-18T20:20:21.629Z,19.60
2019-04-18T20:22:52.443Z,19.50
2019-04-18T20:25:22.062Z,19.40
2019-04-18T20:27:59.543Z,19.20
2019-04-18T20:30:27.249Z,18.90
2019-04-18T20:32:57.347Z,18.80
2019-04-18T20:35:33.588Z,18.70
2019-04-18T20:38:07.142Z,18.50
2019-04-18T20:40:46.421Z,18.30
2019-04-18T20:43:09.299Z,18.20
2019-04-18T20:45:49.001Z,18.20
2019-04-18T20:48:09.593Z,18.10
2019-04-18T20:50:40.367Z,18.00
2019-04-18T20:53:29.594Z,17.90
2019-04-18T20:55:47.252Z,17.80
2019-04-18T20:58:08.770Z,17.70
2019-04-18T21:00:38.234Z,17.60
2019-04-18T21:03:33.682Z,17.50
2019-04-18T21:05:59.396Z,17.40
2019-04-18T21:08:37.675Z,17.30
2019-04-18T21:11:00.306Z,17.20
2019-04-18T21:13:29.772Z,17.10
2019-04-18T21:16:04.549Z,17.00
2019-04-18T21:18:33.520Z,16.90
2019-04-18T21:21:02.963Z,16.90
2019-04-18T21:23:32.943Z,16.90
2019-04-18T21:26:10.264Z,16.80
2019-04-18T21:28:39.286Z,16.70
2019-04-18T21:31:06.542Z,16.70
2019-04-18T21:33:38.588Z,16.60
2019-04-18T21:36:13.149Z,16.50
2019-04-18T21:38:47.585Z,16.30
2019-04-18T21:41:09.924Z,16.20
2019-04-18T21:43:39.400Z,16.20
2019-04-18T21:46:09.186Z,16.20
2019-04-18T21:48:42.611Z,16.20
2019-04-18T21:51:13.636Z,16.00
2019-04-18T21:53:41.309Z,16.00
2019-04-18T21:56:12.200Z,16.00
2019-04-18T21:58:58.672Z,16.00
2019-04-18T22:01:23.513Z,15.90
2019-04-18T22:03:55.132Z,15.80
2019-04-18T22:06:28.793Z,15.60
2019-04-18T22:09:01.268Z,15.50
2019-04-18T22:11:27.898Z,15.40
2019-04-18T22:13:58.471Z,15.40
2019-04-18T22:16:29.233Z,15.40
2019-04-18T22:18:59.505Z,15.40
2019-04-18T22:21:32.446Z,15.20
2019-04-18T22:24:00.841Z,15.20
2019-04-18T22:26:33.417Z,15.10
2019-04-18T22:29:01.606Z,15.10
2019-04-18T22:31:33.239Z,15.00
2019-04-18T22:34:12.670Z,14.80
2019-04-18T22:36:35.971Z,14.80
2019-04-18T22:39:20.117Z,14.80
2019-04-18T22:41:44.158Z,14.70
2019-04-18T22:44:19.365Z,14.70
2019-04-18T22:46:45.874Z,14.70
2019-04-18T22:49:18.675Z,14.70
2019-04-18T22:51:51.821Z,14.70
2019-04-18T22:54:21.974Z,14.60
2019-04-18T22:56:54.029Z,14.60
2019-04-18T22:59:22.560Z,14.50
2019-04-18T23:01:58.159Z,14.70
2019-04-18T23:04:24.093Z,14.00
2019-04-18T23:06:53.824Z,14.00
2019-04-18T23:09:33.154Z,13.90
2019-04-18T23:12:00.469Z,13.90
2019-04-18T23:14:28.845Z,13.80
2019-04-18T23:17:01.669Z,13.90
2019-04-18T23:19:34.009Z,13.70
2019-04-18T23:22:04.351Z,14.00
2019-04-18T23:24:38.763Z,13.80
2019-04-18T23:27:04.225Z,13.80
2019-04-18T23:29:39.863Z,13.90
2019-04-18T23:32:06.176Z,13.60
2019-04-18T23:34:41.186Z,13.70
2019-04-18T23:37:06.977Z,13.70
2019-04-18T23:39:44.801Z,13.60
2019-04-18T23:42:11.726Z,13.40
2019-04-18T23:44:41.078Z,13.30
2019-04-18T23:47:11.380Z,13.50
2019-04-18T23:49:42.790Z,13.70
2019-04-18T23:52:19.303Z,13.80
2019-04-18T23:54:44.125Z,13.80
2019-04-18T23:57:17.390Z,13.30
2019-04-18T23:59:46.713Z,13.40
